Time;durP1;ratioP1;P1;durP2;ratioP2;P2;SDS_P1;SDS_P2;PMS_P1;PMS_P2;Temp;Humidity;BMP_temperature;BMP_pressure;BME280_temperature;BME280_humidity;BME280_pressure;Samples;Min_cycle;Max_cycle;Signal;HPM_P1;HPM_P2
2023/05/27 00:02:05;;;;;;;6.05;3.22;;;;;;;25.31;42.89;101040.91;143723;598;47002;-72
2023/05/27 00:04:31;;;;;;;9.93;3.37;;;;;;;25.32;43.20;101036.19;143727;574;46024;-71
2023/05/27 00:06:57;;;;;;;10.70;3.62;;;;;;;25.32;43.86;101036.19;143718;622;49002;-72
2023/05/27 00:09:23;;;;;;;10.20;3.00;;;;;;;25.27;43.90;101034.34;143722;610;47006;-72
2023/05/27 00:11:50;;;;;;;6.07;3.22;;;;;;;25.27;44.33;101039.81;143725;593;47002;-72
2023/05/27 00:14:17;;;;;;;8.32;3.37;;;;;;;25.26;43.83;101032.69;143723;620;47010;-73
2023/05/27 00:16:43;;;;;;;6.03;2.90;;;;;;;25.27;44.15;101032.38;143723;583;47004;-73
2023/05/27 00:19:09;;;;;;;10.60;3.53;;;;;;;25.26;44.60;101033.50;143724;589;46007;-72
2023/05/27 00:21:36;;;;;;;4.57;3.05;;;;;;;25.27;44.39;101028.84;143728;594;46006;-73
2023/05/27 00:24:03;;;;;;;7.32;3.20;;;;;;;25.28;44.26;101039.53;143725;580;46010;-72
2023/05/27 00:26:29;;;;;;;6.80;3.35;;;;;;;25.25;44.32;101028.31;143722;569;47002;-72
2023/05/27 00:28:55;;;;;;;4.80;3.40;;;;;;;25.23;44.24;101042.34;143723;636;46006;-72
2023/05/27 00:31:22;;;;;;;4.00;3.35;;;;;;;25.21;44.70;101044.56;143728;589;46006;-72
2023/05/27 00:33:49;;;;;;;5.50;3.58;;;;;;;25.20;44.42;101047.59;143721;568;48926;-72
2023/05/27 00:36:15;;;;;;;5.03;3.12;;;;;;;25.20;43.76;101047.59;143724;597;47004;-72
2023/05/27 00:38:42;;;;;;;6.72;3.33;;;;;;;25.19;44.05;101049.53;143726;566;46006;-72
2023/05/27 00:41:12;;;;;;;4.90;2.85;;;;;;;25.17;45.35;101040.75;143728;575;46007;-73
2023/05/27 00:43:38;;;;;;;3.45;2.97;;;;;;;25.18;45.81;101038.81;143722;576;47010;-72
2023/05/27 00:46:05;;;;;;;6.37;3.30;;;;;;;25.18;46.23;101045.12;143726;617;46004;-72
2023/05/27 00:48:31;;;;;;;4.68;2.83;;;;;;;25.16;46.30;101043.78;143725;632;46008;-72
2023/05/27 00:50:58;;;;;;;4.03;2.72;;;;;;;25.17;45.96;101054.50;143724;589;47004;-72
2023/05/27 00:53:25;;;;;;;4.00;2.92;;;;;;;25.17;46.55;101050.91;143724;600;46925;-72
2023/05/27 00:55:54;;;;;;;7.50;4.00;;;;;;;25.16;46.74;101047.34;143723;589;47004;-72
2023/05/27 00:58:21;;;;;;;3.78;3.08;;;;;;;25.15;46.96;101044.91;143727;631;46006;-72
2023/05/27 01:00:48;;;;;;;6.55;3.17;;;;;;;25.12;46.93;101054.53;143725;567;47004;-72
2023/05/27 01:03:16;;;;;;;3.97;3.12;;;;;;;25.10;47.45;101054.84;143724;632;47010;-72
2023/05/27 01:05:43;;;;;;;4.30;2.83;;;;;;;25.09;47.73;101049.59;143723;569;47004;-72
2023/05/27 01:08:31;;;;;;;3.80;3.08;;;;;;;25.06;46.98;101059.25;143726;593;46006;-72
2023/05/27 01:10:57;;;;;;;4.32;2.80;;;;;;;25.06;46.29;101052.97;143727;598;46006;-72
2023/05/27 01:13:52;;;;;;;3.60;2.70;;;;;;;25.03;46.09;101065.31;143728;585;46004;-72
2023/05/27 01:16:19;;;;;;;5.00;3.12;;;;;;;25.01;46.23;101062.03;143722;628;47002;-72
2023/05/27 01:18:47;;;;;;;5.80;2.83;;;;;;;24.97;46.26;101064.56;143721;628;47006;-72
2023/05/27 01:21:19;;;;;;;6.05;3.50;;;;;;;24.96;45.96;101060.16;143725;567;47004;-72
2023/05/27 01:23:49;;;;;;;5.78;2.90;;;;;;;24.95;45.91;101060.47;143724;586;49002;-72
2023/05/27 01:26:15;;;;;;;4.15;2.70;;;;;;;24.92;45.60;101058.28;143723;584;47004;-72
2023/05/27 01:28:42;;;;;;;4.12;3.15;;;;;;;24.91;45.25;101054.72;143727;596;46006;-72
2023/05/27 01:31:18;;;;;;;7.82;2.97;;;;;;;24.92;45.35;101053.59;143726;592;47004;-72
2023/05/27 01:33:55;;;;;;;4.57;2.90;;;;;;;24.91;44.78;101048.41;143726;570;47011;-72
2023/05/27 01:36:24;;;;;;;3.17;2.70;;;;;;;24.90;44.62;101049.50;143722;576;47004;-72
2023/05/27 01:38:52;;;;;;;8.65;2.90;;;;;;;24.90;44.37;101052.25;143724;577;47000;-72
2023/05/27 01:41:21;;;;;;;4.45;2.78;;;;;;;24.91;44.18;101048.41;143727;603;46006;-72
2023/05/27 01:43:49;;;;;;;5.47;2.97;;;;;;;24.90;44.44;101041.28;143725;591;46010;-72
2023/05/27 01:46:16;;;;;;;5.90;3.25;;;;;;;24.90;44.06;101046.75;143723;611;46008;-72
2023/05/27 01:48:42;;;;;;;3.08;2.75;;;;;;;24.89;44.53;101050.63;143725;586;46021;-72
2023/05/27 01:51:08;;;;;;;4.25;3.20;;;;;;;24.88;44.62;101049.81;143727;620;46006;-72
2023/05/27 01:53:34;;;;;;;6.05;2.85;;;;;;;24.89;44.44;101042.38;143723;635;47010;-72
2023/05/27 01:56:01;;;;;;;7.50;2.90;;;;;;;24.86;44.34;101046.53;143726;589;46010;-72
2023/05/27 01:58:27;;;;;;;3.97;2.95;;;;;;;24.83;44.25;101042.41;143725;589;46006;-72
2023/05/27 02:00:54;;;;;;;5.32;3.28;;;;;;;24.81;44.54;101044.63;143723;588;47002;-72
2023/05/27 02:03:20;;;;;;;4.37;3.12;;;;;;;24.80;44.43;101051.22;143725;568;46026;-72
2023/05/27 02:05:46;;;;;;;5.80;3.25;;;;;;;24.77;44.83;101043.56;143724;592;47004;-72
2023/05/27 02:08:13;;;;;;;5.55;3.28;;;;;;;24.75;45.12;101047.69;143726;592;46018;-72
2023/05/27 02:10:39;;;;;;;4.45;3.30;;;;;;;24.73;45.08;101052.66;143727;584;46007;-72
2023/05/27 02:13:05;;;;;;;5.55;3.10;;;;;;;24.72;45.10;101051.84;143725;580;47008;-72
2023/05/27 02:15:32;;;;;;;4.97;3.37;;;;;;;24.71;45.67;101054.88;143722;572;47929;-72
2023/05/27 02:17:58;;;;;;;3.92;3.40;;;;;;;24.70;45.75;101053.22;143721;575;49000;-71
2023/05/27 02:20:25;;;;;;;7.57;3.60;;;;;;;24.67;45.80;101052.69;143724;593;47002;-72
2023/05/27 02:22:51;;;;;;;4.30;3.40;;;;;;;24.67;45.53;101054.59;143725;566;47004;-72
2023/05/27 02:25:18;;;;;;;4.20;3.42;;;;;;;24.66;45.97;101055.69;143724;574;46009;-72
2023/05/27 02:27:48;;;;;;;5.18;3.15;;;;;;;24.64;45.81;101056.00;143724;637;47006;-72
2023/05/27 02:30:15;;;;;;;4.60;3.12;;;;;;;24.66;45.64;101061.19;143727;590;47004;-72
2023/05/27 02:32:41;;;;;;;5.25;3.12;;;;;;;24.64;45.39;101058.75;143725;570;47010;-72
2023/05/27 02:35:08;;;;;;;3.83;3.40;;;;;;;24.64;45.87;101069.72;143724;576;47004;-72
2023/05/27 02:37:35;;;;;;;4.03;3.08;;;;;;;24.63;45.71;101062.59;143728;572;46006;-73
2023/05/27 02:40:01;;;;;;;8.27;3.55;;;;;;;24.63;45.64;101065.34;143726;573;47002;-72
2023/05/27 02:42:27;;;;;;;6.07;3.20;;;;;;;24.61;46.21;101069.47;143727;577;46004;-72
2023/05/27 02:44:53;;;;;;;7.75;3.42;;;;;;;24.60;45.61;101065.09;143722;631;47004;-73
2023/05/27 02:47:20;;;;;;;4.68;3.28;;;;;;;24.58;45.49;101065.38;143726;612;46005;-73
2023/05/27 02:49:46;;;;;;;4.45;3.70;;;;;;;24.51;45.97;101062.12;143726;567;46004;-72
2023/05/27 02:52:12;;;;;;;4.53;3.60;;;;;;;24.55;46.01;101073.34;143723;578;47012;-72
2023/05/27 02:54:38;;;;;;;6.93;3.97;;;;;;;24.56;45.52;101073.06;143725;660;47006;-72
2023/05/27 02:57:05;;;;;;;5.28;3.33;;;;;;;24.57;45.69;101060.97;143726;595;46021;-72
2023/05/27 02:59:31;;;;;;;11.43;3.33;;;;;;;24.57;45.56;101065.66;143723;606;47006;-72
2023/05/27 03:01:57;;;;;;;5.72;3.30;;;;;;;24.57;45.69;101071.16;143726;601;46011;-72
2023/05/27 03:04:24;;;;;;;4.78;3.47;;;;;;;24.55;45.15;101076.91;143725;580;47010;-72
2023/05/27 03:06:50;;;;;;;5.57;3.58;;;;;;;24.57;45.25;101079.38;143723;592;47006;-72
2023/05/27 03:09:16;;;;;;;5.43;3.40;;;;;;;24.56;45.78;101075.81;143725;602;47002;-72
2023/05/27 03:11:43;;;;;;;4.68;2.90;;;;;;;24.58;45.42;101078.28;143722;584;47008;-71
2023/05/27 03:14:09;;;;;;;5.50;3.35;;;;;;;24.58;44.87;101083.78;143725;598;46008;-71
2023/05/27 03:16:35;;;;;;;7.62;3.40;;;;;;;24.59;45.01;101088.16;143724;567;46007;-72
2023/05/27 03:19:02;;;;;;;3.85;3.05;;;;;;;24.57;45.04;101082.94;143725;622;47004;-71
2023/05/27 03:21:28;;;;;;;4.35;3.10;;;;;;;24.59;45.03;101080.75;143726;587;46010;-71
2023/05/27 03:23:54;;;;;;;2.90;2.60;;;;;;;24.58;44.65;101087.34;143724;575;46008;-72
2023/05/27 03:26:21;;;;;;;4.28;3.03;;;;;;;24.56;45.32;101086.78;143727;574;46925;-72
2023/05/27 03:28:48;;;;;;;7.15;3.12;;;;;;;24.54;45.14;101083.50;143723;588;47002;-72
2023/05/27 03:31:14;;;;;;;6.15;3.30;;;;;;;24.53;45.47;101081.91;143725;599;47010;-72
2023/05/27 03:33:40;;;;;;;7.00;3.60;;;;;;;24.50;45.49;101079.72;143725;595;47009;-72
2023/05/27 03:36:07;;;;;;;5.43;3.35;;;;;;;24.50;45.93;101076.97;143725;636;46006;-72
2023/05/27 03:38:33;;;;;;;7.45;3.53;;;;;;;24.51;45.97;101084.09;143727;588;47002;-72
2023/05/27 03:41:00;;;;;;;7.20;3.35;;;;;;;24.50;45.89;101079.72;143725;572;47008;-72
2023/05/27 03:43:26;;;;;;;4.37;3.00;;;;;;;24.49;45.78;101070.63;143723;620;47008;-72
2023/05/27 03:45:52;;;;;;;4.82;3.20;;;;;;;24.49;45.99;101078.88;143723;603;47006;-72
2023/05/27 03:48:19;;;;;;;5.37;2.90;;;;;;;24.49;45.54;101081.63;143729;577;46006;-72
2023/05/27 03:50:45;;;;;;;14.87;3.72;;;;;;;24.50;44.98;101088.75;143726;581;46010;-72
2023/05/27 03:53:11;;;;;;;7.78;3.70;;;;;;;24.51;45.36;101084.09;143724;569;47004;-72
2023/05/27 03:55:37;;;;;;;6.87;3.92;;;;;;;24.51;45.65;101084.91;143727;573;46006;-72
2023/05/27 03:58:04;;;;;;;9.63;3.55;;;;;;;24.51;45.71;101092.34;143728;602;46004;-72
2023/05/27 04:00:30;;;;;;;5.65;3.42;;;;;;;24.53;45.43;101099.19;143726;577;47928;-72
2023/05/27 04:02:57;;;;;;;9.93;4.45;;;;;;;24.55;45.47;101098.88;143722;567;47004;-72
2023/05/27 04:05:23;;;;;;;8.07;3.80;;;;;;;24.56;45.46;101105.22;143724;566;47006;-72
2023/05/27 04:07:51;;;;;;;5.78;3.75;;;;;;;24.55;46.51;101104.37;143728;599;46006;-72
2023/05/27 04:10:17;;;;;;;8.77;3.70;;;;;;;24.56;46.40;101092.28;143726;568;47011;-72
2023/05/27 04:12:44;;;;;;;9.45;3.70;;;;;;;24.57;46.29;101101.34;143725;572;47003;-73
2023/05/27 04:15:10;;;;;;;6.47;3.47;;;;;;;24.57;46.23;101093.12;143727;572;46924;-72
2023/05/27 04:17:37;;;;;;;6.30;3.58;;;;;;;24.58;46.07;101092.81;143730;627;46007;-73
2023/05/27 04:20:13;;;;;;;8.77;3.53;;;;;;;24.59;45.85;101088.97;143728;597;46010;-72
2023/05/27 04:22:41;;;;;;;5.40;3.75;;;;;;;24.62;45.45;101088.41;143726;588;47004;-72
2023/05/27 04:25:07;;;;;;;4.37;3.40;;;;;;;24.62;46.17;101093.91;143728;570;46007;-71
2023/05/27 04:27:34;;;;;;;8.88;3.92;;;;;;;24.65;45.96;101093.34;143726;567;47004;-73
2023/05/27 04:30:01;;;;;;;6.43;3.50;;;;;;;24.67;45.76;101102.13;143726;582;47008;-72
2023/05/27 04:32:27;;;;;;;8.38;4.40;;;;;;;24.68;45.65;101094.69;143725;599;47004;-73
2023/05/27 04:34:54;;;;;;;5.62;3.80;;;;;;;24.69;46.05;101093.59;143726;572;46924;-72
2023/05/27 04:37:20;;;;;;;4.97;3.47;;;;;;;24.71;45.58;101096.91;143725;587;48000;-72
2023/05/27 04:39:47;;;;;;;8.95;4.35;;;;;;;24.73;45.50;101096.59;143725;634;47011;-73
2023/05/27 04:42:15;;;;;;;6.62;4.40;;;;;;;24.75;45.53;101086.16;143725;575;47002;-72
2023/05/27 04:44:41;;;;;;;6.45;4.10;;;;;;;24.77;45.20;101092.19;143727;627;46006;-73
2023/05/27 04:47:07;;;;;;;7.18;4.30;;;;;;;24.78;45.33;101093.81;143726;609;47002;-73
2023/05/27 04:49:34;;;;;;;7.10;4.55;;;;;;;24.78;45.21;101093.81;143727;572;46010;-74
2023/05/27 04:52:01;;;;;;;7.90;5.28;;;;;;;24.76;45.39;101088.63;143725;576;47004;-74
2023/05/27 04:54:27;;;;;;;12.32;5.22;;;;;;;24.78;45.27;101100.16;143730;599;46007;-72
2023/05/27 04:56:54;;;;;;;11.82;5.43;;;;;;;24.81;45.01;101094.06;143729;572;46019;-73
2023/05/27 04:59:21;;;;;;;7.80;4.47;;;;;;;24.83;45.40;101100.09;143726;590;47008;-72
2023/05/27 05:02:09;;;;;;;6.97;4.18;;;;;;;24.86;45.43;101101.47;143725;592;47002;-72
2023/05/27 05:04:38;;;;;;;9.27;4.80;;;;;;;24.90;45.39;101109.97;143729;611;46006;-73
2023/05/27 05:07:05;;;;;;;6.15;4.05;;;;;;;24.91;45.85;101109.66;143729;584;47004;-74
2023/05/27 05:09:31;;;;;;;7.97;4.50;;;;;;;24.92;46.09;101119.53;143727;610;46010;-74
2023/05/27 05:11:58;;;;;;;6.43;4.55;;;;;;;24.95;45.30;101113.47;143724;595;47004;-73
2023/05/27 05:14:24;;;;;;;6.60;4.60;;;;;;;24.97;45.19;101119.50;143724;584;47002;-72
2023/05/27 05:16:50;;;;;;;6.72;4.65;;;;;;;25.00;44.61;101115.34;143728;586;47002;-74
2023/05/27 05:19:16;;;;;;;10.20;5.80;;;;;;;25.01;44.94;101110.69;143728;601;47004;-73
2023/05/27 05:21:42;;;;;;;6.00;4.82;;;;;;;25.02;45.49;101115.09;143728;629;46008;-73
2023/05/27 05:24:08;;;;;;;15.85;6.20;;;;;;;25.04;44.88;101112.88;143727;567;46008;-73
2023/05/27 05:26:35;;;;;;;16.23;6.53;;;;;;;25.06;44.64;101119.72;143730;573;46006;-73
2023/05/27 05:29:01;;;;;;;7.62;4.90;;;;;;;25.09;44.47;101118.31;143729;584;46008;-73
2023/05/27 05:31:27;;;;;;;11.40;5.70;;;;;;;25.10;44.60;101115.28;143724;573;46930;-72
2023/05/27 05:33:53;;;;;;;10.52;5.90;;;;;;;25.11;45.78;101111.44;143726;597;46002;-73
2023/05/27 05:36:20;;;;;;;8.90;4.65;;;;;;;25.16;44.91;101115.22;143727;576;47002;-73
2023/05/27 05:38:47;;;;;;;10.73;4.75;;;;;;;25.16;45.40;101113.31;143727;577;46010;-74
2023/05/27 05:41:13;;;;;;;8.38;4.57;;;;;;;25.19;45.25;101114.66;143725;583;47008;-73
2023/05/27 05:43:39;;;;;;;6.65;4.97;;;;;;;25.22;44.92;101114.09;143726;602;47006;-73
2023/05/27 05:46:07;;;;;;;6.75;4.50;;;;;;;25.23;44.68;101108.31;143727;591;47000;-73
2023/05/27 05:48:33;;;;;;;6.70;5.00;;;;;;;25.26;44.38;101113.22;143724;584;47010;-74
2023/05/27 05:51:00;;;;;;;6.70;4.72;;;;;;;25.30;44.19;101120.91;143724;671;47004;-72
2023/05/27 05:53:28;;;;;;;8.98;4.87;;;;;;;25.31;44.14;101120.63;143725;573;46925;-72
2023/05/27 05:55:54;;;;;;;7.07;4.60;;;;;;;25.34;44.49;101125.53;143727;588;47000;-73
2023/05/27 05:58:21;;;;;;;8.43;4.90;;;;;;;25.37;44.92;101113.16;143727;584;46010;-74
2023/05/27 06:00:47;;;;;;;5.60;4.00;;;;;;;25.37;45.77;101113.94;143726;599;47004;-72
2023/05/27 06:03:14;;;;;;;8.80;4.95;;;;;;;25.39;44.88;101108.19;143726;618;46006;-74
2023/05/27 06:05:40;;;;;;;8.98;5.50;;;;;;;25.41;44.64;101105.97;143727;602;47004;-75
2023/05/27 06:08:07;;;;;;;8.27;5.80;;;;;;;25.43;44.44;101109.25;143725;596;47009;-75
2023/05/27 06:10:33;;;;;;;7.32;5.62;;;;;;;25.43;44.33;101112.84;143724;579;47004;-76
2023/05/27 06:13:00;;;;;;;8.50;5.93;;;;;;;25.46;44.48;101113.38;143728;588;46006;-76
2023/05/27 06:15:26;;;;;;;17.77;5.47;;;;;;;25.46;44.83;101110.63;143727;591;47004;-75
2023/05/27 06:17:54;;;;;;;6.68;4.75;;;;;;;25.47;44.88;101113.06;143726;631;47010;-76
2023/05/27 06:20:20;;;;;;;10.25;5.70;;;;;;;25.49;45.58;101115.53;143725;677;47004;-76
2023/05/27 06:22:47;;;;;;;8.05;5.40;;;;;;;25.50;45.36;101115.25;143726;670;46008;-77
2023/05/27 06:25:14;;;;;;;6.95;5.40;;;;;;;25.52;44.94;101117.69;143729;627;47002;-75
2023/05/27 06:27:40;;;;;;;10.80;5.47;;;;;;;25.54;45.12;101119.06;143726;635;47008;-78
2023/05/27 06:30:08;;;;;;;9.55;6.15;;;;;;;25.58;45.13;101125.63;143725;608;47931;-76
2023/05/27 06:32:34;;;;;;;8.00;5.60;;;;;;;25.62;44.88;101122.25;143724;588;47006;-77
2023/05/27 06:35:01;;;;;;;10.95;5.57;;;;;;;25.56;44.52;101114.09;143725;597;47008;-80
2023/05/27 06:37:27;;;;;;;10.88;6.18;;;;;;;25.52;44.74;101115.78;143727;589;47004;-77
2023/05/27 06:39:54;;;;;;;9.43;5.20;;;;;;;25.55;44.21;101112.44;143727;620;46015;-78
2023/05/27 06:42:22;;;;;;;10.00;5.37;;;;;;;25.63;44.65;101115.66;143726;635;47006;-76
2023/05/27 06:44:49;;;;;;;12.32;5.62;;;;;;;25.68;44.13;101121.91;143726;573;47003;-80
2023/05/27 06:47:15;;;;;;;9.23;5.32;;;;;;;25.73;44.25;101121.06;143725;635;47011;-77
2023/05/27 06:49:42;;;;;;;9.38;5.93;;;;;;;25.72;44.44;101117.47;143724;581;47004;-77
2023/05/27 06:52:08;;;;;;;8.45;5.30;;;;;;;25.77;44.11;101116.59;143728;596;46007;-77
2023/05/27 06:54:36;;;;;;;7.57;5.28;;;;;;;25.82;44.37;101111.03;143727;588;47002;-76
2023/05/27 06:57:03;;;;;;;9.45;5.75;;;;;;;25.84;44.12;101105.28;143727;593;47010;-78
2023/05/27 06:59:29;;;;;;;9.98;6.57;;;;;;;25.89;43.95;101105.19;143723;605;47004;-76
2023/05/27 07:01:57;;;;;;;9.27;5.75;;;;;;;25.89;44.22;101099.69;143727;576;46006;-78
2023/05/27 07:04:23;;;;;;;7.60;5.68;;;;;;;25.96;44.06;101105.66;143728;585;47002;-76
2023/05/27 07:06:49;;;;;;;7.20;4.00;;;;;;;26.00;43.30;101100.38;143725;586;47009;-78
2023/05/27 07:09:16;;;;;;;6.00;5.20;;;;;;;26.04;42.92;101094.00;143720;574;48008;-78
2023/05/27 07:11:42;;;;;;;8.73;4.43;;;;;;;26.01;42.71;101102.88;143728;624;46006;-79
2023/05/27 07:14:10;;;;;;;9.13;3.87;;;;;;;25.98;42.90;101097.94;143727;581;47004;-78
2023/05/27 07:16:37;;;;;;;8.35;4.32;;;;;;;26.05;42.91;101092.06;143725;633;47008;-71
2023/05/27 07:19:03;;;;;;;7.12;4.20;;;;;;;26.11;42.87;101090.94;143725;631;47002;-72
2023/05/27 07:21:29;;;;;;;7.68;3.97;;;;;;;26.16;43.25;101088.09;143726;611;46007;-72
2023/05/27 07:23:58;;;;;;;7.50;3.67;;;;;;;26.19;42.29;101086.69;143728;572;47006;-72
2023/05/27 07:26:28;;;;;;;8.43;4.12;;;;;;;26.22;42.06;101091.59;143727;566;46010;-73
2023/05/27 07:28:54;;;;;;;7.10;3.97;;;;;;;26.21;45.11;101089.16;143729;684;46004;-74
2023/05/27 07:31:21;;;;;;;9.60;4.50;;;;;;;26.14;45.54;101095.03;143727;574;47002;-74
2023/05/27 07:33:47;;;;;;;9.35;3.90;;;;;;;26.17;45.76;101091.69;143726;590;47004;-73
2023/05/27 07:36:14;;;;;;;6.57;3.95;;;;;;;26.15;45.57;101088.41;143729;592;47005;-74
2023/05/27 07:38:41;;;;;;;6.18;3.95;;;;;;;26.18;46.13;101093.31;143724;598;47004;-72
2023/05/27 07:41:07;;;;;;;6.70;3.80;;;;;;;26.19;46.10;101089.47;143726;576;46006;-73
2023/05/27 07:43:34;;;;;;;6.20;3.70;;;;;;;26.23;45.86;101081.41;143727;591;47004;-73
2023/05/27 07:46:03;;;;;;;9.52;3.75;;;;;;;26.27;45.90;101086.03;143727;610;46011;-74
2023/05/27 07:48:29;;;;;;;6.37;3.95;;;;;;;26.32;45.28;101090.63;143726;602;47002;-73
2023/05/27 07:50:56;;;;;;;5.65;3.85;;;;;;;26.21;46.54;101087.19;143727;617;46008;-73
2023/05/27 07:53:22;;;;;;;5.05;3.47;;;;;;;26.12;46.42;101094.50;143727;572;47002;-74
2023/05/27 07:55:49;;;;;;;5.45;3.40;;;;;;;26.01;46.45;101089.09;143725;598;47008;-74
2023/05/27 07:58:16;;;;;;;6.28;4.55;;;;;;;26.08;46.14;101091.50;143727;681;46008;-73
2023/05/27 08:00:42;;;;;;;7.95;3.80;;;;;;;26.18;46.25;101090.56;143726;623;46007;-72
2023/05/27 08:03:08;;;;;;;8.80;4.32;;;;;;;26.21;46.27;101089.16;143726;615;47002;-71
2023/05/27 08:05:35;;;;;;;6.72;4.53;;;;;;;26.23;46.40;101087.72;143726;621;46008;-74
2023/05/27 08:08:01;;;;;;;8.73;3.92;;;;;;;26.05;46.47;101092.06;143726;579;47006;-73
2023/05/27 08:10:28;;;;;;;4.80;3.70;;;;;;;25.95;46.43;101089.44;143727;569;46022;-73
2023/05/27 08:12:54;;;;;;;6.15;4.35;;;;;;;25.96;46.13;101091.91;143725;579;47002;-74
2023/05/27 08:15:21;;;;;;;4.37;3.75;;;;;;;25.97;46.23;101085.28;143726;596;47008;-74
2023/05/27 08:17:47;;;;;;;7.20;3.92;;;;;;;25.92;46.42;101090.03;143726;569;47004;-75
2023/05/27 08:20:14;;;;;;;6.70;3.97;;;;;;;26.00;46.61;101081.94;143725;633;47006;-74
2023/05/27 08:22:42;;;;;;;6.28;3.47;;;;;;;25.85;45.82;101085.69;143725;577;47002;-73
2023/05/27 08:25:09;;;;;;;5.03;3.65;;;;;;;25.96;45.97;101089.16;143726;569;47010;-73
2023/05/27 08:27:53;;;;;;;7.28;3.75;;;;;;;25.99;45.43;101087.72;143724;643;47004;-73
2023/05/27 08:30:21;;;;;;;8.45;3.90;;;;;;;25.85;45.76;101087.66;143727;572;46007;-73
2023/05/27 08:32:47;;;;;;;9.48;3.95;;;;;;;25.75;46.46;101088.59;143724;584;47002;-74
2023/05/27 08:35:14;;;;;;;6.53;3.80;;;;;;;25.65;45.52;101088.69;143726;592;46010;-73
2023/05/27 08:37:41;;;;;;;5.55;3.65;;;;;;;25.79;45.75;101084.13;143725;572;47005;-72
2023/05/27 08:40:14;;;;;;;5.82;3.50;;;;;;;25.97;45.72;101089.97;143727;574;47006;-74
2023/05/27 08:42:41;;;;;;;5.97;3.87;;;;;;;26.09;45.97;101087.63;143728;586;47004;-73
2023/05/27 08:45:08;;;;;;;7.32;3.42;;;;;;;26.14;45.94;101082.06;143725;592;47004;-74
2023/05/27 08:47:35;;;;;;;5.55;3.20;;;;;;;26.13;44.27;101082.38;143725;646;47004;-75
2023/05/27 08:50:03;;;;;;;7.55;3.42;;;;;;;26.18;44.86;101093.31;143725;619;47004;-73
2023/05/27 08:52:29;;;;;;;7.05;3.62;;;;;;;26.23;44.78;101086.91;143729;628;47007;-73
2023/05/27 08:55:01;;;;;;;4.65;3.42;;;;;;;26.30;45.17;101088.19;143727;572;46010;-72
2023/05/27 08:57:33;;;;;;;6.82;3.80;;;;;;;26.37;44.71;101089.78;143726;590;47004;-73
2023/05/27 08:59:59;;;;;;;7.78;3.62;;;;;;;26.38;44.56;101094.16;143726;586;47006;-73
2023/05/27 09:02:28;;;;;;;6.85;3.70;;;;;;;26.23;46.29;101087.72;143729;598;46006;-74
2023/05/27 09:04:55;;;;;;;7.80;3.62;;;;;;;26.31;45.92;101083.50;143725;589;46010;-74
2023/05/27 09:07:22;;;;;;;13.32;5.07;;;;;;;26.32;44.80;101085.13;143725;581;46008;-72
2023/05/27 09:09:58;;;;;;;10.90;4.80;;;;;;;26.32;45.17;101080.47;143722;573;47006;-76
2023/05/27 09:12:26;;;;;;;8.85;3.92;;;;;;;26.23;44.44;101079.47;143724;594;47004;-74
2023/05/27 09:14:55;;;;;;;14.15;5.05;;;;;;;26.24;44.71;101078.34;143724;568;47008;-80
2023/05/27 09:17:25;;;;;;;14.70;4.37;;;;;;;26.27;44.50;101072.25;143725;572;46004;-76
2023/05/27 09:19:52;;;;;;;10.55;4.00;;;;;;;26.40;44.90;101072.62;143725;636;46925;-79
2023/05/27 09:22:24;;;;;;;12.27;4.18;;;;;;;26.50;45.20;101064.22;143719;593;48010;-77
2023/05/27 09:24:56;;;;;;;7.80;4.05;;;;;;;26.62;45.24;101066.53;143725;627;46010;-80
2023/05/27 09:27:29;;;;;;;7.57;4.55;;;;;;;26.69;44.63;101066.16;143724;579;46013;-76
2023/05/27 09:29:57;;;;;;;6.80;3.90;;;;;;;26.84;44.26;101063.19;143726;572;47002;-78
2023/05/27 09:32:33;;;;;;;7.50;3.90;;;;;;;26.90;43.16;101069.44;143725;581;47004;-79
2023/05/27 09:35:01;;;;;;;6.28;3.28;;;;;;;27.02;43.04;101071.72;143725;733;46010;-73
2023/05/27 09:37:33;;;;;;;5.87;3.40;;;;;;;27.06;42.33;101075.50;143723;589;46008;-74
2023/05/27 09:40:04;;;;;;;6.78;3.70;;;;;;;27.11;42.46;101077.34;143729;731;46006;-76
2023/05/27 09:42:59;;;;;;;6.90;3.37;;;;;;;27.08;43.34;101070.50;143726;592;47003;-74
2023/05/27 09:45:28;;;;;;;6.85;3.62;;;;;;;27.03;42.89;101067.84;143725;658;46011;-74
2023/05/27 09:47:55;;;;;;;4.57;3.22;;;;;;;27.02;42.78;101072.50;143723;687;47004;-76
2023/05/27 09:50:22;;;;;;;4.15;3.35;;;;;;;27.03;43.42;101076.91;143724;683;47007;-76
2023/05/27 09:52:49;;;;;;;4.43;3.33;;;;;;;27.05;43.09;101069.16;143723;591;47002;-78
2023/05/27 09:55:17;;;;;;;6.25;3.55;;;;;;;27.11;43.91;101078.16;143722;707;47010;-76
2023/05/27 09:57:45;;;;;;;4.93;3.10;;;;;;;27.15;43.79;101070.13;143721;581;47005;-76
2023/05/27 10:00:13;;;;;;;8.73;3.25;;;;;;;27.08;42.98;101073.28;143727;576;46006;-79
2023/05/27 10:02:47;;;;;;;9.90;3.53;;;;;;;26.99;43.65;101064.03;143726;665;47000;-77
2023/05/27 10:05:16;;;;;;;6.28;3.53;;;;;;;27.00;43.23;101065.69;143725;623;46010;-76
2023/05/27 10:07:46;;;;;;;9.18;3.35;;;;;;;26.98;44.09;101066.00;143722;693;47004;-76
2023/05/27 10:10:17;;;;;;;7.03;3.58;;;;;;;27.01;42.88;101064.56;143725;712;47006;-75
2023/05/27 10:12:46;;;;;;;3.90;3.53;;;;;;;27.00;43.65;101058.25;143725;603;47002;-76
2023/05/27 10:15:24;;;;;;;5.37;3.85;;;;;;;26.96;43.74;101054.44;143722;573;47008;-75
2023/05/27 10:18:02;;;;;;;5.00;3.67;;;;;;;27.08;42.95;101049.25;143725;582;47004;-75
2023/05/27 10:20:34;;;;;;;6.25;3.37;;;;;;;27.04;41.37;101050.97;143725;666;46007;-75
2023/05/27 10:23:15;;;;;;;5.43;3.33;;;;;;;26.99;42.35;101056.59;143720;609;48000;-75
2023/05/27 10:25:50;;;;;;;4.03;3.62;;;;;;;26.98;42.46;101054.13;143725;707;46010;-76
2023/05/27 10:28:45;;;;;;;8.40;3.58;;;;;;;26.98;41.94;101049.47;143723;575;47004;-77
2023/05/27 10:31:15;;;;;;;3.37;2.60;;;;;;;26.93;40.70;101050.34;143724;655;46006;-75
2023/05/27 10:33:47;;;;;;;6.18;2.95;;;;;;;26.98;39.72;101043.94;143723;567;47002;-74
2023/05/27 10:36:24;;;;;;;2.65;2.35;;;;;;;27.03;39.34;101043.03;143724;650;46929;-76
2023/05/27 10:39:17;;;;;;;5.72;2.70;;;;;;;27.08;39.67;101037.44;143722;612;47004;-76
2023/05/27 10:41:53;;;;;;;3.37;2.47;;;;;;;27.13;39.37;101039.28;143725;649;46014;-78
2023/05/27 10:44:36;;;;;;;3.80;2.47;;;;;;;27.19;38.85;101032.53;143724;698;47002;-76
2023/05/27 10:47:10;;;;;;;6.28;2.92;;;;;;;27.30;40.30;101035.91;143724;646;47010;-77
2023/05/27 10:49:39;;;;;;;6.40;2.92;;;;;;;27.34;39.87;101031.44;143721;577;47006;-75
2023/05/27 10:52:13;;;;;;;2.60;2.40;;;;;;;27.31;39.71;101024.59;143725;570;46008;-75
2023/05/27 10:54:40;;;;;;;3.65;2.30;;;;;;;27.31;38.59;101030.09;143725;629;47004;-75
2023/05/27 10:57:08;;;;;;;3.08;2.33;;;;;;;27.25;39.00;101028.56;143723;671;46926;-75
2023/05/27 10:59:43;;;;;;;3.53;2.80;;;;;;;27.28;39.31;101021.59;143723;674;47006;-73
2023/05/27 11:02:10;;;;;;;5.12;2.55;;;;;;;27.15;39.32;101021.28;143724;706;47002;-75
2023/05/27 11:04:37;;;;;;;4.18;2.70;;;;;;;27.27;38.98;101022.75;143726;660;47006;-75
2023/05/27 11:07:04;;;;;;;3.10;2.40;;;;;;;27.37;38.62;101030.81;143726;572;46006;-76
2023/05/27 11:09:42;;;;;;;5.50;3.55;;;;;;;27.26;39.16;101021.13;143724;566;47006;-79
2023/05/27 11:12:13;;;;;;;3.62;2.45;;;;;;;27.38;38.80;101024.19;143724;589;47008;-77
2023/05/27 11:14:39;;;;;;;4.72;2.55;;;;;;;27.44;39.80;101022.16;143726;642;47006;-74
2023/05/27 11:17:09;;;;;;;5.10;3.12;;;;;;;27.45;39.73;101018.25;143722;597;47012;-74
2023/05/27 11:19:35;;;;;;;4.07;2.60;;;;;;;27.51;39.92;101019.84;143723;588;47006;-76
2023/05/27 11:22:02;;;;;;;2.85;2.40;;;;;;;27.44;39.33;101025.72;143724;654;46008;-75
2023/05/27 11:24:28;;;;;;;2.70;2.30;;;;;;;27.27;38.72;101020.00;143727;619;47006;-76
2023/05/27 11:26:55;;;;;;;4.22;2.55;;;;;;;27.16;38.55;101016.63;143722;683;47015;-74
2023/05/27 11:29:21;;;;;;;3.45;2.40;;;;;;;27.08;39.15;101023.66;143724;651;47006;-75